sensor_id;sensor_type;location;lat;lon;timestamp;temperature;humidity
44723;DHT22;30451;48.638;10.624;2023-03-12T00:01:27;22.50;46.10
44723;DHT22;30451;48.638;10.624;2023-03-12T00:03:54;22.50;46.10
44723;DHT22;30451;48.638;10.624;2023-03-12T00:06:20;22.50;46.10
44723;DHT22;30451;48.638;10.624;2023-03-12T00:08:47;22.40;46.00
44723;DHT22;30451;48.638;10.624;2023-03-12T00:11:16;22.40;46.00
44723;DHT22;30451;48.638;10.624;2023-03-12T00:13:42;22.40;46.00
44723;DHT22;30451;48.638;10.624;2023-03-12T00:16:13;22.40;46.00
44723;DHT22;30451;48.638;10.624;2023-03-12T00:18:40;22.30;46.00
44723;DHT22;30451;48.638;10.624;2023-03-12T00:21:07;22.30;45.90
44723;DHT22;30451;48.638;10.624;2023-03-12T00:23:34;22.30;45.90
44723;DHT22;30451;48.638;10.624;2023-03-12T00:26:01;22.30;45.90
44723;DHT22;30451;48.638;10.624;2023-03-12T00:28:27;22.30;45.90
44723;DHT22;30451;48.638;10.624;2023-03-12T00:30:53;22.30;45.90
44723;DHT22;30451;48.638;10.624;2023-03-12T00:33:18;22.30;45.90
44723;DHT22;30451;48.638;10.624;2023-03-12T00:35:44;22.30;46.00
44723;DHT22;30451;48.638;10.624;2023-03-12T00:38:10;22.20;45.90
44723;DHT22;30451;48.638;10.624;2023-03-12T00:40:36;22.20;45.90
44723;DHT22;30451;48.638;10.624;2023-03-12T00:43:03;22.20;45.90
44723;DHT22;30451;48.638;10.624;2023-03-12T00:45:29;22.20;45.90
44723;DHT22;30451;48.638;10.624;2023-03-12T00:47:55;22.20;45.90
44723;DHT22;30451;48.638;10.624;2023-03-12T00:50:20;22.20;45.90
44723;DHT22;30451;48.638;10.624;2023-03-12T00:52:46;22.10;45.90
44723;DHT22;30451;48.638;10.624;2023-03-12T00:55:12;22.10;45.90
44723;DHT22;30451;48.638;10.624;2023-03-12T00:57:38;22.10;45.90
44723;DHT22;30451;48.638;10.624;2023-03-12T01:00:04;22.10;45.90
44723;DHT22;30451;48.638;10.624;2023-03-12T01:02:35;22.10;45.90
44723;DHT22;30451;48.638;10.624;2023-03-12T01:05:01;22.10;45.90
44723;DHT22;30451;48.638;10.624;2023-03-12T01:07:27;22.10;45.90
44723;DHT22;30451;48.638;10.624;2023-03-12T01:09:53;22.00;45.80
44723;DHT22;30451;48.638;10.624;2023-03-12T01:12:18;22.00;45.80
44723;DHT22;30451;48.638;10.624;2023-03-12T01:14:44;22.00;45.80
44723;DHT22;30451;48.638;10.624;2023-03-12T01:17:10;22.00;45.80
44723;DHT22;30451;48.638;10.624;2023-03-12T01:19:35;22.00;45.80
44723;DHT22;30451;48.638;10.624;2023-03-12T01:22:01;21.90;45.80
44723;DHT22;30451;48.638;10.624;2023-03-12T01:24:27;21.90;45.80
44723;DHT22;30451;48.638;10.624;2023-03-12T01:26:52;21.90;45.80
44723;DHT22;30451;48.638;10.624;2023-03-12T01:29:18;21.90;45.90
44723;DHT22;30451;48.638;10.624;2023-03-12T01:31:44;21.90;45.90
44723;DHT22;30451;48.638;10.624;2023-03-12T01:34:10;21.90;45.90
44723;DHT22;30451;48.638;10.624;2023-03-12T01:36:36;21.80;45.80
44723;DHT22;30451;48.638;10.624;2023-03-12T01:39:03;21.80;45.90
44723;DHT22;30451;48.638;10.624;2023-03-12T01:41:30;21.80;45.90
44723;DHT22;30451;48.638;10.624;2023-03-12T01:44:00;21.80;45.90
44723;DHT22;30451;48.638;10.624;2023-03-12T01:46:36;21.80;45.90
44723;DHT22;30451;48.638;10.624;2023-03-12T01:49:25;21.80;45.90
44723;DHT22;30451;48.638;10.624;2023-03-12T01:54:43;21.70;45.90
44723;DHT22;30451;48.638;10.624;2023-03-12T01:57:14;21.70;45.90
44723;DHT22;30451;48.638;10.624;2023-03-12T02:02:11;21.70;45.90
44723;DHT22;30451;48.638;10.624;2023-03-12T02:04:38;21.70;46.00
44723;DHT22;30451;48.638;10.624;2023-03-12T02:07:13;21.60;45.90
44723;DHT22;30451;48.638;10.624;2023-03-12T02:09:46;21.60;45.90
44723;DHT22;30451;48.638;10.624;2023-03-12T02:12:13;21.60;46.00
44723;DHT22;30451;48.638;10.624;2023-03-12T02:14:40;21.60;46.00
44723;DHT22;30451;48.638;10.624;2023-03-12T02:17:06;21.60;46.00
44723;DHT22;30451;48.638;10.624;2023-03-12T02:19:48;21.60;46.00
44723;DHT22;30451;48.638;10.624;2023-03-12T02:22:15;21.60;46.00
44723;DHT22;30451;48.638;10.624;2023-03-12T02:25:11;21.60;46.50
44723;DHT22;30451;48.638;10.624;2023-03-12T02:27:37;21.50;46.00
44723;DHT22;30451;48.638;10.624;2023-03-12T02:30:04;21.50;46.00
44723;DHT22;30451;48.638;10.624;2023-03-12T02:32:34;21.50;46.00
44723;DHT22;30451;48.638;10.624;2023-03-12T02:35:01;21.50;46.10
44723;DHT22;30451;48.638;10.624;2023-03-12T02:37:27;21.50;46.10
44723;DHT22;30451;48.638;10.624;2023-03-12T02:40:07;21.50;46.10
44723;DHT22;30451;48.638;10.624;2023-03-12T02:42:37;21.50;46.10
44723;DHT22;30451;48.638;10.624;2023-03-12T02:45:03;21.50;46.10
44723;DHT22;30451;48.638;10.624;2023-03-12T02:47:29;21.40;46.00
44723;DHT22;30451;48.638;10.624;2023-03-12T02:49:55;21.40;46.10
44723;DHT22;30451;48.638;10.624;2023-03-12T02:52:20;21.40;46.10
44723;DHT22;30451;48.638;10.624;2023-03-12T02:54:46;21.40;46.10
44723;DHT22;30451;48.638;10.624;2023-03-12T02:57:12;21.40;46.10
44723;DHT22;30451;48.638;10.624;2023-03-12T02:59:37;21.40;46.10
44723;DHT22;30451;48.638;10.624;2023-03-12T03:02:03;21.30;46.00
44723;DHT22;30451;48.638;10.624;2023-03-12T03:04:29;21.40;46.10
44723;DHT22;30451;48.638;10.624;2023-03-12T03:06:56;21.30;46.10
44723;DHT22;30451;48.638;10.624;2023-03-12T03:09:22;21.30;46.10
44723;DHT22;30451;48.638;10.624;2023-03-12T03:11:49;21.30;46.10
44723;DHT22;30451;48.638;10.624;2023-03-12T03:14:15;21.30;46.10
44723;DHT22;30451;48.638;10.624;2023-03-12T03:16:41;21.30;46.10
44723;DHT22;30451;48.638;10.624;2023-03-12T03:19:07;21.30;46.10
44723;DHT22;30451;48.638;10.624;2023-03-12T03:21:32;21.30;46.20
44723;DHT22;30451;48.638;10.624;2023-03-12T03:23:59;21.30;46.20
44723;DHT22;30451;48.638;10.624;2023-03-12T03:26:25;21.20;46.10
44723;DHT22;30451;48.638;10.624;2023-03-12T03:28:51;21.20;46.10
44723;DHT22;30451;48.638;10.624;2023-03-12T03:31:16;21.20;46.20
44723;DHT22;30451;48.638;10.624;2023-03-12T03:33:42;21.20;46.20
44723;DHT22;30451;48.638;10.624;2023-03-12T03:36:09;21.20;46.20
44723;DHT22;30451;48.638;10.624;2023-03-12T03:38:35;21.20;46.20
44723;DHT22;30451;48.638;10.624;2023-03-12T03:41:02;21.20;46.20
44723;DHT22;30451;48.638;10.624;2023-03-12T03:43:27;21.20;46.20
44723;DHT22;30451;48.638;10.624;2023-03-12T03:46:04;21.20;46.20
44723;DHT22;30451;48.638;10.624;2023-03-12T03:48:30;21.20;46.20
44723;DHT22;30451;48.638;10.624;2023-03-12T03:51:00;21.10;46.50
44723;DHT22;30451;48.638;10.624;2023-03-12T03:53:26;21.10;46.20
44723;DHT22;30451;48.638;10.624;2023-03-12T03:55:52;21.10;46.20
44723;DHT22;30451;48.638;10.624;2023-03-12T03:58:17;21.10;46.20
44723;DHT22;30451;48.638;10.624;2023-03-12T04:00:44;21.10;46.20
44723;DHT22;30451;48.638;10.624;2023-03-12T04:03:10;21.10;46.20
44723;DHT22;30451;48.638;10.624;2023-03-12T04:05:36;21.10;46.30
44723;DHT22;30451;48.638;10.624;2023-03-12T04:08:02;21.10;46.30
44723;DHT22;30451;48.638;10.624;2023-03-12T04:10:28;21.10;46.30
44723;DHT22;30451;48.638;10.624;2023-03-12T04:12:54;21.10;46.30
44723;DHT22;30451;48.638;10.624;2023-03-12T04:15:20;21.00;46.30
44723;DHT22;30451;48.638;10.624;2023-03-12T04:17:46;21.00;46.30
44723;DHT22;30451;48.638;10.624;2023-03-12T04:20:12;21.00;46.30
44723;DHT22;30451;48.638;10.624;2023-03-12T04:22:37;21.10;46.30
44723;DHT22;30451;48.638;10.624;2023-03-12T04:25:05;21.00;46.30
44723;DHT22;30451;48.638;10.624;2023-03-12T04:27:32;21.00;46.40
44723;DHT22;30451;48.638;10.624;2023-03-12T04:29:58;21.00;46.30
44723;DHT22;30451;48.638;10.624;2023-03-12T04:32:23;21.00;46.30
44723;DHT22;30451;48.638;10.624;2023-03-12T04:34:49;21.00;46.30
44723;DHT22;30451;48.638;10.624;2023-03-12T04:37:15;21.00;46.40
44723;DHT22;30451;48.638;10.624;2023-03-12T04:39:42;21.00;46.40
44723;DHT22;30451;48.638;10.624;2023-03-12T04:42:09;21.00;46.40
44723;DHT22;30451;48.638;10.624;2023-03-12T04:44:35;21.00;46.40
44723;DHT22;30451;48.638;10.624;2023-03-12T04:47:01;21.00;46.40
44723;DHT22;30451;48.638;10.624;2023-03-12T04:49:27;21.00;46.40
44723;DHT22;30451;48.638;10.624;2023-03-12T04:51:54;20.90;46.40
44723;DHT22;30451;48.638;10.624;2023-03-12T04:54:20;20.90;46.40
44723;DHT22;30451;48.638;10.624;2023-03-12T04:56:46;20.90;46.40
44723;DHT22;30451;48.638;10.624;2023-03-12T04:59:12;20.90;46.40
44723;DHT22;30451;48.638;10.624;2023-03-12T05:01:38;20.90;46.40
44723;DHT22;30451;48.638;10.624;2023-03-12T05:04:05;20.90;46.40
44723;DHT22;30451;48.638;10.624;2023-03-12T05:06:31;20.90;46.40
44723;DHT22;30451;48.638;10.624;2023-03-12T05:08:57;20.90;46.40
44723;DHT22;30451;48.638;10.624;2023-03-12T05:11:23;20.90;46.40
44723;DHT22;30451;48.638;10.624;2023-03-12T05:13:50;20.90;46.40
44723;DHT22;30451;48.638;10.624;2023-03-12T05:16:16;20.90;46.40
44723;DHT22;30451;48.638;10.624;2023-03-12T05:18:42;20.90;46.40
44723;DHT22;30451;48.638;10.624;2023-03-12T05:21:11;20.90;46.40
44723;DHT22;30451;48.638;10.624;2023-03-12T05:23:37;20.90;46.40
44723;DHT22;30451;48.638;10.624;2023-03-12T05:26:05;20.90;46.40
44723;DHT22;30451;48.638;10.624;2023-03-12T05:28:31;20.90;46.40
44723;DHT22;30451;48.638;10.624;2023-03-12T05:30:58;20.80;46.40
44723;DHT22;30451;48.638;10.624;2023-03-12T05:33:26;20.90;46.50
44723;DHT22;30451;48.638;10.624;2023-03-12T05:35:52;20.90;46.50
44723;DHT22;30451;48.638;10.624;2023-03-12T05:38:18;20.80;46.50
44723;DHT22;30451;48.638;10.624;2023-03-12T05:40:51;20.80;46.50
44723;DHT22;30451;48.638;10.624;2023-03-12T05:43:17;20.80;46.50
44723;DHT22;30451;48.638;10.624;2023-03-12T05:45:43;20.90;46.60
44723;DHT22;30451;48.638;10.624;2023-03-12T05:48:09;20.80;46.50
44723;DHT22;30451;48.638;10.624;2023-03-12T05:50:34;20.80;46.50
44723;DHT22;30451;48.638;10.624;2023-03-12T05:53:00;20.80;46.50
44723;DHT22;30451;48.638;10.624;2023-03-12T05:55:26;20.80;46.60
44723;DHT22;30451;48.638;10.624;2023-03-12T05:57:51;20.80;46.50
44723;DHT22;30451;48.638;10.624;2023-03-12T06:00:18;20.80;46.60
44723;DHT22;30451;48.638;10.624;2023-03-12T06:02:44;20.80;46.60
44723;DHT22;30451;48.638;10.624;2023-03-12T06:05:10;20.80;46.50
44723;DHT22;30451;48.638;10.624;2023-03-12T06:07:37;20.80;46.60
44723;DHT22;30451;48.638;10.624;2023-03-12T06:10:03;20.80;46.60
44723;DHT22;30451;48.638;10.624;2023-03-12T06:12:29;20.80;46.60
44723;DHT22;30451;48.638;10.624;2023-03-12T06:14:56;20.80;46.60
44723;DHT22;30451;48.638;10.624;2023-03-12T06:17:22;20.80;46.60
44723;DHT22;30451;48.638;10.624;2023-03-12T06:19:51;20.80;46.60
44723;DHT22;30451;48.638;10.624;2023-03-12T06:22:18;20.80;46.60
44723;DHT22;30451;48.638;10.624;2023-03-12T06:24:43;20.80;46.60
44723;DHT22;30451;48.638;10.624;2023-03-12T06:27:12;20.70;46.50
44723;DHT22;30451;48.638;10.624;2023-03-12T06:29:38;20.70;46.60
44723;DHT22;30451;48.638;10.624;2023-03-12T06:32:04;20.80;46.60
44723;DHT22;30451;48.638;10.624;2023-03-12T06:34:30;20.70;46.50
44723;DHT22;30451;48.638;10.624;2023-03-12T06:36:56;20.70;46.60
44723;DHT22;30451;48.638;10.624;2023-03-12T06:39:22;20.70;46.60
44723;DHT22;30451;48.638;10.624;2023-03-12T06:41:47;20.70;46.60
44723;DHT22;30451;48.638;10.624;2023-03-12T06:44:13;20.70;46.60
44723;DHT22;30451;48.638;10.624;2023-03-12T06:46:39;20.70;46.60
44723;DHT22;30451;48.638;10.624;2023-03-12T06:49:05;20.70;46.70
44723;DHT22;30451;48.638;10.624;2023-03-12T06:51:31;20.70;46.70
44723;DHT22;30451;48.638;10.624;2023-03-12T06:53:57;20.70;46.70
44723;DHT22;30451;48.638;10.624;2023-03-12T06:56:25;20.70;46.70
44723;DHT22;30451;48.638;10.624;2023-03-12T06:58:51;20.70;46.70
44723;DHT22;30451;48.638;10.624;2023-03-12T07:01:16;20.70;46.70
44723;DHT22;30451;48.638;10.624;2023-03-12T07:03:42;20.70;46.70
44723;DHT22;30451;48.638;10.624;2023-03-12T07:06:16;20.70;46.70
44723;DHT22;30451;48.638;10.624;2023-03-12T07:08:42;20.70;46.80
44723;DHT22;30451;48.638;10.624;2023-03-12T07:11:09;20.70;46.70
44723;DHT22;30451;48.638;10.624;2023-03-12T07:13:35;20.70;46.80
44723;DHT22;30451;48.638;10.624;2023-03-12T07:16:01;20.70;46.80
44723;DHT22;30451;48.638;10.624;2023-03-12T07:18:27;20.70;46.80
44723;DHT22;30451;48.638;10.624;2023-03-12T07:20:53;20.70;46.80
44723;DHT22;30451;48.638;10.624;2023-03-12T07:23:19;20.70;46.80
44723;DHT22;30451;48.638;10.624;2023-03-12T07:25:45;20.70;46.80
44723;DHT22;30451;48.638;10.624;2023-03-12T07:28:12;20.70;46.80
44723;DHT22;30451;48.638;10.624;2023-03-12T07:30:39;20.70;46.90
44723;DHT22;30451;48.638;10.624;2023-03-12T07:33:07;20.70;46.90
44723;DHT22;30451;48.638;10.624;2023-03-12T07:35:34;20.70;46.90
44723;DHT22;30451;48.638;10.624;2023-03-12T07:38:00;20.60;46.80
44723;DHT22;30451;48.638;10.624;2023-03-12T07:40:26;20.60;46.80
44723;DHT22;30451;48.638;10.624;2023-03-12T07:42:52;20.60;46.80
44723;DHT22;30451;48.638;10.624;2023-03-12T07:45:18;20.60;46.90
44723;DHT22;30451;48.638;10.624;2023-03-12T07:47:44;20.60;46.90
44723;DHT22;30451;48.638;10.624;2023-03-12T07:50:11;20.60;46.90
44723;DHT22;30451;48.638;10.624;2023-03-12T07:52:37;20.60;46.90
44723;DHT22;30451;48.638;10.624;2023-03-12T07:55:03;20.60;46.90
44723;DHT22;30451;48.638;10.624;2023-03-12T07:57:29;20.60;46.90
44723;DHT22;30451;48.638;10.624;2023-03-12T07:59:54;20.60;46.90
44723;DHT22;30451;48.638;10.624;2023-03-12T08:02:20;20.60;46.90
44723;DHT22;30451;48.638;10.624;2023-03-12T08:04:46;20.60;46.90
44723;DHT22;30451;48.638;10.624;2023-03-12T08:07:12;20.60;46.90
44723;DHT22;30451;48.638;10.624;2023-03-12T08:09:38;20.60;47.00
44723;DHT22;30451;48.638;10.624;2023-03-12T08:12:06;20.60;47.00
44723;DHT22;30451;48.638;10.624;2023-03-12T08:14:31;20.60;47.00
44723;DHT22;30451;48.638;10.624;2023-03-12T08:16:58;20.60;47.00
44723;DHT22;30451;48.638;10.624;2023-03-12T08:19:24;20.60;47.00
44723;DHT22;30451;48.638;10.624;2023-03-12T08:21:50;20.60;47.10
44723;DHT22;30451;48.638;10.624;2023-03-12T08:24:18;20.60;47.10
44723;DHT22;30451;48.638;10.624;2023-03-12T08:26:44;20.60;47.10
44723;DHT22;30451;48.638;10.624;2023-03-12T08:29:10;20.60;47.10
44723;DHT22;30451;48.638;10.624;2023-03-12T08:31:36;20.60;47.10
44723;DHT22;30451;48.638;10.624;2023-03-12T08:34:01;20.50;47.10
44723;DHT22;30451;48.638;10.624;2023-03-12T08:36:27;20.50;47.10
44723;DHT22;30451;48.638;10.624;2023-03-12T08:38:53;20.50;47.10
44723;DHT22;30451;48.638;10.624;2023-03-12T08:41:18;20.50;47.10
44723;DHT22;30451;48.638;10.624;2023-03-12T08:43:44;20.50;47.10
44723;DHT22;30451;48.638;10.624;2023-03-12T08:46:11;20.50;47.70
44723;DHT22;30451;48.638;10.624;2023-03-12T08:48:37;20.50;47.20
44723;DHT22;30451;48.638;10.624;2023-03-12T08:51:03;20.50;47.20
44723;DHT22;30451;48.638;10.624;2023-03-12T08:53:31;20.50;47.20
44723;DHT22;30451;48.638;10.624;2023-03-12T08:55:58;20.50;47.70
44723;DHT22;30451;48.638;10.624;2023-03-12T08:58:25;20.50;47.20
44723;DHT22;30451;48.638;10.624;2023-03-12T09:00:51;20.50;47.30
44723;DHT22;30451;48.638;10.624;2023-03-12T09:03:18;20.50;47.30
44723;DHT22;30451;48.638;10.624;2023-03-12T09:06:10;20.50;47.30
44723;DHT22;30451;48.638;10.624;2023-03-12T09:08:39;20.50;47.30
44723;DHT22;30451;48.638;10.624;2023-03-12T09:11:06;20.50;47.30
44723;DHT22;30451;48.638;10.624;2023-03-12T09:13:33;20.50;47.40
44723;DHT22;30451;48.638;10.624;2023-03-12T09:16:01;20.50;47.40
44723;DHT22;30451;48.638;10.624;2023-03-12T09:18:27;20.50;47.40
44723;DHT22;30451;48.638;10.624;2023-03-12T09:20:53;20.40;47.40
44723;DHT22;30451;48.638;10.624;2023-03-12T09:23:19;20.40;47.40
44723;DHT22;30451;48.638;10.624;2023-03-12T09:25:46;20.40;47.40
44723;DHT22;30451;48.638;10.624;2023-03-12T09:28:12;20.40;47.40
44723;DHT22;30451;48.638;10.624;2023-03-12T09:30:38;20.40;47.50
44723;DHT22;30451;48.638;10.624;2023-03-12T09:33:04;20.40;47.50
44723;DHT22;30451;48.638;10.624;2023-03-12T09:35:29;20.40;47.50
44723;DHT22;30451;48.638;10.624;2023-03-12T09:37:58;20.40;47.50
44723;DHT22;30451;48.638;10.624;2023-03-12T09:40:26;20.40;47.50
44723;DHT22;30451;48.638;10.624;2023-03-12T09:45:30;20.40;47.60
44723;DHT22;30451;48.638;10.624;2023-03-12T09:48:02;20.40;47.60
44723;DHT22;30451;48.638;10.624;2023-03-12T09:50:31;20.40;47.60
44723;DHT22;30451;48.638;10.624;2023-03-12T09:55:39;20.40;47.80
44723;DHT22;30451;48.638;10.624;2023-03-12T09:58:28;20.40;47.80
44723;DHT22;30451;48.638;10.624;2023-03-12T10:01:46;20.40;47.90
44723;DHT22;30451;48.638;10.624;2023-03-12T10:07:13;20.30;47.90
44723;DHT22;30451;48.638;10.624;2023-03-12T10:26:22;20.30;48.10
44723;DHT22;30451;48.638;10.624;2023-03-12T10:31:29;20.30;48.40
44723;DHT22;30451;48.638;10.624;2023-03-12T10:34:01;20.30;48.70
44723;DHT22;30451;48.638;10.624;2023-03-12T10:36:34;20.30;48.80
44723;DHT22;30451;48.638;10.624;2023-03-12T10:39:01;20.30;48.90
44723;DHT22;30451;48.638;10.624;2023-03-12T10:41:29;20.30;48.90
44723;DHT22;30451;48.638;10.624;2023-03-12T10:43:59;20.30;49.50
44723;DHT22;30451;48.638;10.624;2023-03-12T10:46:56;20.30;49.00
44723;DHT22;30451;48.638;10.624;2023-03-12T10:49:31;20.30;49.10
44723;DHT22;30451;48.638;10.624;2023-03-12T10:52:03;20.30;49.20
44723;DHT22;30451;48.638;10.624;2023-03-12T10:54:38;20.30;49.20
44723;DHT22;30451;48.638;10.624;2023-03-12T10:57:05;20.30;49.20
44723;DHT22;30451;48.638;10.624;2023-03-12T10:59:34;20.30;49.50
44723;DHT22;30451;48.638;10.624;2023-03-12T11:02:01;20.40;49.40
44723;DHT22;30451;48.638;10.624;2023-03-12T11:04:30;20.50;49.50
44723;DHT22;30451;48.638;10.624;2023-03-12T11:07:09;20.60;49.30
44723;DHT22;30451;48.638;10.624;2023-03-12T11:09:39;20.70;49.20
44723;DHT22;30451;48.638;10.624;2023-03-12T11:12:27;20.90;49.10
44723;DHT22;30451;48.638;10.624;2023-03-12T11:14:53;21.00;48.90
44723;DHT22;30451;48.638;10.624;2023-03-12T11:17:22;21.10;48.90
44723;DHT22;30451;48.638;10.624;2023-03-12T11:19:48;21.10;49.00
44723;DHT22;30451;48.638;10.624;2023-03-12T11:22:27;21.20;48.40
44723;DHT22;30451;48.638;10.624;2023-03-12T11:24:57;21.30;48.40
44723;DHT22;30451;48.638;10.624;2023-03-12T11:27:52;21.40;48.40
44723;DHT22;30451;48.638;10.624;2023-03-12T11:30:23;21.50;48.00
44723;DHT22;30451;48.638;10.624;2023-03-12T11:32:52;21.50;47.90
44723;DHT22;30451;48.638;10.624;2023-03-12T11:35:53;21.60;47.80
44723;DHT22;30451;48.638;10.624;2023-03-12T11:38:18;21.70;47.60
44723;DHT22;30451;48.638;10.624;2023-03-12T11:46:24;21.60;47.30
44723;DHT22;30451;48.638;10.624;2023-03-12T11:49:03;21.70;47.40
44723;DHT22;30451;48.638;10.624;2023-03-12T11:57:25;21.60;47.40
44723;DHT22;30451;48.638;10.624;2023-03-12T12:24:34;22.00;47.20
44723;DHT22;30451;48.638;10.624;2023-03-12T12:27:20;22.10;47.00
44723;DHT22;30451;48.638;10.624;2023-03-12T12:30:04;22.30;46.80
44723;DHT22;30451;48.638;10.624;2023-03-12T12:38:03;22.70;45.90
44723;DHT22;30451;48.638;10.624;2023-03-12T12:40:34;22.90;45.80
44723;DHT22;30451;48.638;10.624;2023-03-12T12:45:41;23.10;45.30
44723;DHT22;30451;48.638;10.624;2023-03-12T12:48:38;23.20;45.10
44723;DHT22;30451;48.638;10.624;2023-03-12T12:51:05;23.30;45.00
44723;DHT22;30451;48.638;10.624;2023-03-12T12:53:39;23.30;45.10
44723;DHT22;30451;48.638;10.624;2023-03-12T13:01:51;23.20;45.20
44723;DHT22;30451;48.638;10.624;2023-03-12T13:04:56;23.20;45.20
44723;DHT22;30451;48.638;10.624;2023-03-12T13:09:44;23.20;45.20
44723;DHT22;30451;48.638;10.624;2023-03-12T13:14:44;23.10;45.30
44723;DHT22;30451;48.638;10.624;2023-03-12T13:19:59;23.00;45.30
44723;DHT22;30451;48.638;10.624;2023-03-12T13:28:30;23.00;45.30
44723;DHT22;30451;48.638;10.624;2023-03-12T13:33:57;22.90;45.40
44723;DHT22;30451;48.638;10.624;2023-03-12T13:36:27;22.90;45.40
44723;DHT22;30451;48.638;10.624;2023-03-12T13:38:54;22.90;45.50
44723;DHT22;30451;48.638;10.624;2023-03-12T13:41:38;22.90;45.50
44723;DHT22;30451;48.638;10.624;2023-03-12T13:49:40;22.80;45.50
44723;DHT22;30451;48.638;10.624;2023-03-12T13:52:18;22.80;45.50
44723;DHT22;30451;48.638;10.624;2023-03-12T13:54:48;22.80;45.60
44723;DHT22;30451;48.638;10.624;2023-03-12T14:00:44;22.80;45.60
44723;DHT22;30451;48.638;10.624;2023-03-12T14:05:51;22.70;45.70
44723;DHT22;30451;48.638;10.624;2023-03-12T14:08:32;22.70;45.70
44723;DHT22;30451;48.638;10.624;2023-03-12T14:18:48;22.80;45.70
44723;DHT22;30451;48.638;10.624;2023-03-12T14:21:16;22.80;45.70
44723;DHT22;30451;48.638;10.624;2023-03-12T14:23:49;22.80;45.70
44723;DHT22;30451;48.638;10.624;2023-03-12T14:26:22;22.80;45.70
44723;DHT22;30451;48.638;10.624;2023-03-12T14:29:13;22.80;45.70
44723;DHT22;30451;48.638;10.624;2023-03-12T14:31:44;22.80;45.60
44723;DHT22;30451;48.638;10.624;2023-03-12T14:36:48;22.90;45.60
44723;DHT22;30451;48.638;10.624;2023-03-12T14:42:02;22.90;45.80
44723;DHT22;30451;48.638;10.624;2023-03-12T14:44:34;22.90;45.70
44723;DHT22;30451;48.638;10.624;2023-03-12T14:47:03;22.90;45.70
44723;DHT22;30451;48.638;10.624;2023-03-12T14:49:39;22.90;45.80
44723;DHT22;30451;48.638;10.624;2023-03-12T14:52:05;22.90;45.70
44723;DHT22;30451;48.638;10.624;2023-03-12T14:54:31;22.90;46.00
44723;DHT22;30451;48.638;10.624;2023-03-12T14:56:57;22.90;46.10
44723;DHT22;30451;48.638;10.624;2023-03-12T14:59:31;22.90;46.00
44723;DHT22;30451;48.638;10.624;2023-03-12T15:02:06;23.00;46.00
44723;DHT22;30451;48.638;10.624;2023-03-12T15:04:36;23.00;46.00
44723;DHT22;30451;48.638;10.624;2023-03-12T15:07:04;23.00;45.90
44723;DHT22;30451;48.638;10.624;2023-03-12T15:09:34;23.00;45.90
44723;DHT22;30451;48.638;10.624;2023-03-12T15:12:02;23.00;46.00
44723;DHT22;30451;48.638;10.624;2023-03-12T15:14:32;23.00;45.90
44723;DHT22;30451;48.638;10.624;2023-03-12T15:16:59;23.00;45.90
44723;DHT22;30451;48.638;10.624;2023-03-12T15:19:29;23.00;45.80
44723;DHT22;30451;48.638;10.624;2023-03-12T15:21:58;23.00;45.80
44723;DHT22;30451;48.638;10.624;2023-03-12T15:24:24;23.00;45.90
44723;DHT22;30451;48.638;10.624;2023-03-12T15:26:50;23.00;46.00
44723;DHT22;30451;48.638;10.624;2023-03-12T15:29:21;23.00;45.90
44723;DHT22;30451;48.638;10.624;2023-03-12T15:31:52;23.10;46.00
44723;DHT22;30451;48.638;10.624;2023-03-12T15:34:36;23.00;45.90
44723;DHT22;30451;48.638;10.624;2023-03-12T15:39:48;23.10;46.00
44723;DHT22;30451;48.638;10.624;2023-03-12T15:42:16;23.10;46.00
44723;DHT22;30451;48.638;10.624;2023-03-12T15:44:47;23.10;46.00
44723;DHT22;30451;48.638;10.624;2023-03-12T15:47:17;23.10;46.10
44723;DHT22;30451;48.638;10.624;2023-03-12T15:49:48;23.10;46.10
44723;DHT22;30451;48.638;10.624;2023-03-12T15:55:21;23.10;46.60
44723;DHT22;30451;48.638;10.624;2023-03-12T15:57:51;23.10;46.00
44723;DHT22;30451;48.638;10.624;2023-03-12T16:05:21;23.20;46.10
44723;DHT22;30451;48.638;10.624;2023-03-12T16:07:47;23.20;46.10
44723;DHT22;30451;48.638;10.624;2023-03-12T16:10:15;23.20;46.10
44723;DHT22;30451;48.638;10.624;2023-03-12T16:12:42;23.20;46.10
44723;DHT22;30451;48.638;10.624;2023-03-12T16:15:16;23.10;46.60
44723;DHT22;30451;48.638;10.624;2023-03-12T16:17:43;23.20;46.10
44723;DHT22;30451;48.638;10.624;2023-03-12T16:20:12;23.10;46.10
44723;DHT22;30451;48.638;10.624;2023-03-12T16:22:38;23.10;46.20
44723;DHT22;30451;48.638;10.624;2023-03-12T16:25:05;23.10;46.20
44723;DHT22;30451;48.638;10.624;2023-03-12T16:27:30;23.10;46.30
44723;DHT22;30451;48.638;10.624;2023-03-12T16:29:58;23.20;46.30
44723;DHT22;30451;48.638;10.624;2023-03-12T16:32:24;23.10;46.20
44723;DHT22;30451;48.638;10.624;2023-03-12T16:34:51;23.10;46.20
44723;DHT22;30451;48.638;10.624;2023-03-12T16:37:17;23.10;46.20
44723;DHT22;30451;48.638;10.624;2023-03-12T16:39:43;23.10;46.20
44723;DHT22;30451;48.638;10.624;2023-03-12T16:42:17;23.10;46.20
44723;DHT22;30451;48.638;10.624;2023-03-12T16:44:44;23.10;46.20
44723;DHT22;30451;48.638;10.624;2023-03-12T16:47:13;23.00;46.30
44723;DHT22;30451;48.638;10.624;2023-03-12T16:49:39;23.10;46.40
44723;DHT22;30451;48.638;10.624;2023-03-12T16:52:19;23.00;46.40
44723;DHT22;30451;48.638;10.624;2023-03-12T16:54:48;23.00;46.40
44723;DHT22;30451;48.638;10.624;2023-03-12T16:57:28;23.00;46.90
44723;DHT22;30451;48.638;10.624;2023-03-12T16:59:56;23.00;46.40
44723;DHT22;30451;48.638;10.624;2023-03-12T17:02:22;23.00;46.50
44723;DHT22;30451;48.638;10.624;2023-03-12T17:04:47;22.90;46.50
44723;DHT22;30451;48.638;10.624;2023-03-12T17:07:14;22.90;46.50
44723;DHT22;30451;48.638;10.624;2023-03-12T17:09:40;22.90;46.50
44723;DHT22;30451;48.638;10.624;2023-03-12T17:12:17;22.90;46.60
44723;DHT22;30451;48.638;10.624;2023-03-12T17:14:43;22.90;46.70
44723;DHT22;30451;48.638;10.624;2023-03-12T17:17:09;22.90;46.70
44723;DHT22;30451;48.638;10.624;2023-03-12T17:19:34;22.90;46.80
44723;DHT22;30451;48.638;10.624;2023-03-12T17:22:00;22.90;46.80
44723;DHT22;30451;48.638;10.624;2023-03-12T17:24:25;22.90;46.90
44723;DHT22;30451;48.638;10.624;2023-03-12T17:26:52;22.80;46.80
44723;DHT22;30451;48.638;10.624;2023-03-12T17:29:18;22.90;46.90
44723;DHT22;30451;48.638;10.624;2023-03-12T17:31:43;22.90;47.00
44723;DHT22;30451;48.638;10.624;2023-03-12T17:34:09;22.80;47.00
44723;DHT22;30451;48.638;10.624;2023-03-12T17:36:36;22.90;47.10
44723;DHT22;30451;48.638;10.624;2023-03-12T17:39:02;22.80;47.70